Time;durP1;ratioP1;P1;durP2;ratioP2;P2;SDS_P1;SDS_P2;PMS_P1;PMS_P2;Temp;Humidity;BMP_temperature;BMP_pressure;BME280_temperature;BME280_humidity;BME280_pressure;Samples;Min_cycle;Max_cycle;Signal;HPM_P1;HPM_P2
2022/04/23 00:00:23;;;;;;;;;;;9.30;99.90;;;;;;5035060;28;19999;-64
2022/04/23 00:02:50;;;;;;;;;;;9.20;99.90;;;;;;5025962;28;19933;-67
2022/04/23 00:05:17;;;;;;;;;;;9.30;99.90;;;;;;5033022;28;20047;-65
2022/04/23 00:07:44;;;;;;;;;;;9.20;99.90;;;;;;5030264;28;19929;-65
2022/04/23 00:10:10;;;;;;;;;;;9.20;99.90;;;;;;5034577;28;19951;-64
2022/04/23 00:12:37;;;;;;;;;;;9.20;99.90;;;;;;5029532;28;19932;-65
2022/04/23 00:15:06;;;;;;;;;;;9.10;99.90;;;;;;5031388;28;19936;-64
2022/04/23 00:17:33;;;;;;;;;;;9.10;99.90;;;;;;5030323;28;20396;-64
2022/04/23 00:20:00;;;;;;;;;;;9.10;99.90;;;;;;5029594;28;19947;-65
2022/04/23 00:22:27;;;;;;;;;;;9.10;99.90;;;;;;5031412;28;19932;-65
2022/04/23 00:24:54;;;;;;;;;;;9.20;99.90;;;;;;5035173;28;20550;-65
2022/04/23 00:27:21;;;;;;;;;;;9.10;99.90;;;;;;5032802;28;20273;-65
2022/04/23 00:29:48;;;;;;;;;;;9.10;99.90;;;;;;5032057;28;19929;-65
2022/04/23 00:32:15;;;;;;;;;;;9.10;99.90;;;;;;5030558;28;19979;-64
2022/04/23 00:34:42;;;;;;;;;;;9.10;99.90;;;;;;5027357;28;20019;-65
2022/04/23 00:37:10;;;;;;;;;;;9.10;99.90;;;;;;5032895;28;19933;-65
2022/04/23 00:39:37;;;;;;;;;;;9.10;99.90;;;;;;5032085;28;19931;-64
2022/04/23 00:42:08;;;;;;;;;;;9.20;99.90;;;;;;5030024;28;20388;-64
2022/04/23 00:44:37;;;;;;;;;;;9.20;99.90;;;;;;5016665;28;19933;-65
2022/04/23 00:47:05;;;;;;;;;;;9.10;99.90;;;;;;5031451;28;19929;-65
2022/04/23 00:49:33;;;;;;;;;;;9.20;99.90;;;;;;5031967;28;19925;-65
2022/04/23 00:52:01;;;;;;;;;;;9.10;99.90;;;;;;5030455;28;19991;-64
2022/04/23 00:54:28;;;;;;;;;;;9.10;99.90;;;;;;5032682;28;20034;-65
2022/04/23 00:56:56;;;;;;;;;;;9.10;99.90;;;;;;5030521;28;19955;-65
2022/04/23 00:59:23;;;;;;;;;;;9.10;99.90;;;;;;5028357;28;19928;-65
2022/04/23 01:01:53;;;;;;;;;;;9.10;99.90;;;;;;5025919;28;19933;-65
2022/04/23 01:04:20;;;;;;;;;;;9.10;99.90;;;;;;5030040;28;19937;-65
2022/04/23 01:06:47;;;;;;;;;;;9.10;99.90;;;;;;5031148;28;20008;-65
2022/04/23 01:09:14;;;;;;;;;;;9.10;99.90;;;;;;5031725;28;19971;-64
2022/04/23 01:11:41;;;;;;;;;;;9.10;99.90;;;;;;5031607;28;19940;-64
2022/04/23 01:14:08;;;;;;;;;;;9.20;99.90;;;;;;5035381;28;19944;-65
2022/04/23 01:16:35;;;;;;;;;;;9.10;99.90;;;;;;5014228;28;20376;-65
2022/04/23 01:19:02;;;;;;;;;;;9.10;99.90;;;;;;5017333;28;19932;-65
2022/04/23 01:21:30;;;;;;;;;;;9.00;99.90;;;;;;5031700;28;19929;-65
2022/04/23 01:23:58;;;;;;;;;;;9.10;99.90;;;;;;5028558;28;20016;-65
2022/04/23 01:26:26;;;;;;;;;;;9.10;99.90;;;;;;5048355;28;19968;-65
2022/04/23 01:28:54;;;;;;;;;;;9.10;99.90;;;;;;5034393;28;20286;-64
2022/04/23 01:31:21;;;;;;;;;;;9.10;99.90;;;;;;5032823;28;19928;-64
2022/04/23 01:33:48;;;;;;;;;;;9.10;99.90;;;;;;5033384;28;19936;-65
2022/04/23 01:36:16;;;;;;;;;;;9.00;99.90;;;;;;5028882;28;19929;-65
2022/04/23 01:38:43;;;;;;;;;;;9.00;99.90;;;;;;5030454;28;19951;-65
2022/04/23 01:41:10;;;;;;;;;;;9.00;99.90;;;;;;5025960;28;19933;-65
2022/04/23 01:43:37;;;;;;;;;;;9.00;99.90;;;;;;5029559;28;19929;-66
2022/04/23 01:46:04;;;;;;;;;;;9.00;99.90;;;;;;5031429;28;19939;-65
2022/04/23 01:48:31;;;;;;;;;;;8.90;99.90;;;;;;5032893;28;19933;-65
2022/04/23 01:50:58;;;;;;;;;;;8.90;99.90;;;;;;5046185;28;19926;-65
2022/04/23 01:53:25;;;;;;;;;;;8.90;99.90;;;;;;5028752;28;19924;-65
2022/04/23 01:55:52;;;;;;;;;;;8.90;99.90;;;;;;5018088;28;19940;-65
2022/04/23 01:58:21;;;;;;;;;;;8.90;99.90;;;;;;5028971;28;19929;-66
2022/04/23 02:00:49;;;;;;;;;;;8.90;99.90;;;;;;5044190;28;19936;-65
2022/04/23 02:03:16;;;;;;;;;;;8.90;99.90;;;;;;5029441;28;20015;-65
2022/04/23 02:05:43;;;;;;;;;;;9.00;99.90;;;;;;5037177;28;19973;-65
2022/04/23 02:08:14;;;;;;;;;;;9.00;99.90;;;;;;5030346;28;19939;-65
2022/04/23 02:10:41;;;;;;;;;;;8.90;99.90;;;;;;5019191;28;20383;-65
2022/04/23 02:13:09;;;;;;;;;;;8.90;99.90;;;;;;5025886;28;20423;-65
2022/04/23 02:15:35;;;;;;;;;;;9.00;99.90;;;;;;5032268;28;19929;-66
2022/04/23 02:18:02;;;;;;;;;;;8.90;99.90;;;;;;5031057;28;20022;-65
2022/04/23 02:20:29;;;;;;;;;;;8.90;99.90;;;;;;5034832;28;20768;-65
2022/04/23 02:22:56;;;;;;;;;;;9.00;99.90;;;;;;5040933;28;19933;-65
2022/04/23 02:25:24;;;;;;;;;;;8.90;99.90;;;;;;5031404;28;19939;-65
2022/04/23 02:27:51;;;;;;;;;;;8.90;99.90;;;;;;5036032;28;19924;-65
2022/04/23 02:30:19;;;;;;;;;;;8.90;99.90;;;;;;5031940;28;19933;-65
2022/04/23 02:32:47;;;;;;;;;;;8.90;99.90;;;;;;5047921;28;19929;-65
2022/04/23 02:35:16;;;;;;;;;;;8.90;99.90;;;;;;5034111;28;19936;-66
2022/04/23 02:37:45;;;;;;;;;;;8.90;99.90;;;;;;5036073;28;19933;-65
2022/04/23 02:40:13;;;;;;;;;;;8.80;99.90;;;;;;5032749;28;19933;-65
2022/04/23 02:42:40;;;;;;;;;;;8.80;99.90;;;;;;5037454;28;20413;-65
2022/04/23 02:45:08;;;;;;;;;;;8.80;99.90;;;;;;5030524;28;19937;-65
2022/04/23 02:47:46;;;;;;;;;;;8.90;99.90;;;;;;5030848;28;20891;-65
2022/04/23 02:50:14;;;;;;;;;;;8.90;99.90;;;;;;5033780;28;20016;-66
2022/04/23 02:52:42;;;;;;;;;;;8.90;99.90;;;;;;5031970;28;20019;-66
2022/04/23 02:55:11;;;;;;;;;;;8.90;99.90;;;;;;5031442;28;20395;-66
2022/04/23 02:57:40;;;;;;;;;;;8.90;99.90;;;;;;5035436;28;20930;-66
2022/04/23 03:00:09;;;;;;;;;;;8.90;99.90;;;;;;5033399;28;20812;-66
2022/04/23 03:02:37;;;;;;;;;;;8.80;99.90;;;;;;5032727;28;19951;-66
2022/04/23 03:05:06;;;;;;;;;;;8.90;99.90;;;;;;5036043;28;20012;-65
2022/04/23 03:07:34;;;;;;;;;;;8.90;99.90;;;;;;5032977;28;20012;-65
2022/04/23 03:10:02;;;;;;;;;;;8.90;99.90;;;;;;5034312;28;19932;-65
2022/04/23 03:12:29;;;;;;;;;;;8.90;99.90;;;;;;5031126;28;19929;-65
2022/04/23 03:14:56;;;;;;;;;;;8.80;99.90;;;;;;5035034;28;19933;-65
2022/04/23 03:17:24;;;;;;;;;;;8.90;99.90;;;;;;5031376;28;19928;-65
2022/04/23 03:19:51;;;;;;;;;;;8.80;99.90;;;;;;5035172;28;19929;-65
2022/04/23 03:22:19;;;;;;;;;;;8.90;99.90;;;;;;5037087;28;20376;-65
2022/04/23 03:24:47;;;;;;;;;;;8.90;99.90;;;;;;5035607;28;19980;-65
2022/04/23 03:27:14;;;;;;;;;;;8.80;99.90;;;;;;5037211;28;19936;-65
2022/04/23 03:29:41;;;;;;;;;;;8.90;99.90;;;;;;5029619;28;20007;-65
2022/04/23 03:32:10;;;;;;;;;;;8.90;99.90;;;;;;5034453;28;19932;-66
2022/04/23 03:34:37;;;;;;;;;;;8.80;99.90;;;;;;5032255;28;19936;-65
2022/04/23 03:37:05;;;;;;;;;;;8.90;99.90;;;;;;5029382;28;20348;-65
2022/04/23 03:39:32;;;;;;;;;;;8.90;99.90;;;;;;5046553;28;20302;-65
2022/04/23 03:42:01;;;;;;;;;;;8.90;99.90;;;;;;5034997;28;19925;-65
2022/04/23 03:44:30;;;;;;;;;;;8.90;99.90;;;;;;5032687;28;19933;-65
2022/04/23 03:46:57;;;;;;;;;;;8.80;99.90;;;;;;5033758;28;19932;-65
2022/04/23 03:49:25;;;;;;;;;;;8.80;99.90;;;;;;5014383;28;20406;-65
2022/04/23 03:51:51;;;;;;;;;;;8.80;99.90;;;;;;5034888;28;19929;-65
2022/04/23 03:54:18;;;;;;;;;;;8.80;99.90;;;;;;5037617;28;19940;-65
2022/04/23 03:56:46;;;;;;;;;;;8.80;99.90;;;;;;5030308;28;19933;-65
2022/04/23 03:59:14;;;;;;;;;;;8.80;99.90;;;;;;5032444;28;19936;-65
2022/04/23 04:01:41;;;;;;;;;;;8.80;99.90;;;;;;5031211;28;20380;-65
2022/04/23 04:04:09;;;;;;;;;;;8.80;99.90;;;;;;5035649;28;19968;-65
2022/04/23 04:06:39;;;;;;;;;;;8.80;99.90;;;;;;5029888;28;19928;-66
2022/04/23 04:09:06;;;;;;;;;;;8.80;99.90;;;;;;5030602;28;20623;-66
2022/04/23 04:14:19;;;;;;;;;;;8.80;99.90;;;;;;5034347;28;19929;-66
2022/04/23 04:16:46;;;;;;;;;;;8.90;99.90;;;;;;5028923;28;19940;-65
2022/04/23 04:19:14;;;;;;;;;;;8.90;99.90;;;;;;5031271;28;19940;-65
2022/04/23 04:21:43;;;;;;;;;;;8.90;99.90;;;;;;5032747;28;20350;-66
2022/04/23 04:24:12;;;;;;;;;;;8.90;99.90;;;;;;5037828;28;19933;-65
2022/04/23 04:26:40;;;;;;;;;;;8.80;99.90;;;;;;5046819;28;19925;-65
2022/04/23 04:29:07;;;;;;;;;;;8.80;99.90;;;;;;5029971;28;20328;-65
2022/04/23 04:31:47;;;;;;;;;;;8.90;99.90;;;;;;5037156;28;19936;-65
2022/04/23 04:34:33;;;;;;;;;;;8.90;99.90;;;;;;5029722;28;20113;-65
2022/04/23 04:37:10;;;;;;;;;;;8.80;99.90;;;;;;5031618;28;19933;-65
2022/04/23 04:39:37;;;;;;;;;;;8.90;99.90;;;;;;5031291;28;19929;-65
2022/04/23 04:42:05;;;;;;;;;;;8.90;99.90;;;;;;5028248;28;19929;-65
2022/04/23 04:44:32;;;;;;;;;;;8.90;99.90;;;;;;5036951;28;19991;-65
2022/04/23 04:47:09;;;;;;;;;;;8.90;99.90;;;;;;5029497;28;19935;-65
2022/04/23 04:49:36;;;;;;;;;;;8.90;99.90;;;;;;5032453;28;19939;-65
2022/04/23 04:52:04;;;;;;;;;;;8.90;99.90;;;;;;5034666;28;19929;-65
2022/04/23 04:54:31;;;;;;;;;;;8.90;99.90;;;;;;5025489;28;19925;-65
2022/04/23 04:56:58;;;;;;;;;;;9.00;99.90;;;;;;5029747;28;19994;-65
2022/04/23 04:59:25;;;;;;;;;;;8.90;99.90;;;;;;5032031;28;19933;-65
2022/04/23 05:01:52;;;;;;;;;;;8.90;99.90;;;;;;4990136;28;20002;-65
2022/04/23 05:04:20;;;;;;;;;;;8.90;99.90;;;;;;4993315;28;22441;-65
2022/04/23 05:06:47;;;;;;;;;;;8.90;99.90;;;;;;5004122;28;20902;-65
2022/04/23 05:09:14;;;;;;;;;;;9.00;99.90;;;;;;4985104;28;19940;-64
2022/04/23 05:11:42;;;;;;;;;;;8.90;99.90;;;;;;4989186;28;19940;-67
2022/04/23 05:14:09;;;;;;;;;;;9.00;99.90;;;;;;4986102;28;19933;-66
2022/04/23 05:16:36;;;;;;;;;;;9.00;99.90;;;;;;4988035;28;19940;-65
2022/04/23 05:19:03;;;;;;;;;;;8.90;99.90;;;;;;4984595;28;19968;-67
2022/04/23 05:21:30;;;;;;;;;;;8.90;99.90;;;;;;5005169;28;19933;-67
2022/04/23 05:23:57;;;;;;;;;;;8.90;99.90;;;;;;4988167;28;19933;-65
2022/04/23 05:26:24;;;;;;;;;;;9.00;99.90;;;;;;4972348;28;19966;-65
2022/04/23 05:28:51;;;;;;;;;;;9.00;99.90;;;;;;4985828;28;19940;-67
2022/04/23 05:31:18;;;;;;;;;;;9.00;99.90;;;;;;4984456;28;22233;-65
2022/04/23 05:33:45;;;;;;;;;;;9.00;99.90;;;;;;4987487;28;19933;-65
2022/04/23 05:36:12;;;;;;;;;;;9.00;99.90;;;;;;4989856;28;19941;-65
2022/04/23 05:38:39;;;;;;;;;;;9.00;99.90;;;;;;4987694;28;20857;-65
2022/04/23 05:41:06;;;;;;;;;;;9.00;99.90;;;;;;4986599;28;19940;-65
2022/04/23 05:43:33;;;;;;;;;;;9.10;99.90;;;;;;4986897;28;19933;-66
2022/04/23 05:46:01;;;;;;;;;;;9.20;99.90;;;;;;4984004;28;19940;-65
2022/04/23 05:48:28;;;;;;;;;;;9.10;99.90;;;;;;5003989;28;19940;-66
2022/04/23 05:50:55;;;;;;;;;;;9.20;99.90;;;;;;5002819;28;20011;-65
2022/04/23 05:53:22;;;;;;;;;;;9.30;99.90;;;;;;4986106;28;20691;-66
2022/04/23 05:55:49;;;;;;;;;;;9.20;99.90;;;;;;4989162;28;19968;-65
2022/04/23 05:58:16;;;;;;;;;;;9.20;99.90;;;;;;4997460;28;19933;-65
2022/04/23 06:00:43;;;;;;;;;;;9.20;99.90;;;;;;4959107;28;19956;-65
2022/04/23 06:03:11;;;;;;;;;;;9.30;99.90;;;;;;4985219;28;19940;-65
2022/04/23 06:05:39;;;;;;;;;;;9.30;99.90;;;;;;4970477;28;19940;-65
2022/04/23 06:08:06;;;;;;;;;;;9.30;99.90;;;;;;4992530;28;22731;-65
2022/04/23 06:10:33;;;;;;;;;;;9.30;99.90;;;;;;4988842;28;19968;-65
2022/04/23 06:13:00;;;;;;;;;;;9.40;99.90;;;;;;4990081;28;19933;-65
2022/04/23 06:15:27;;;;;;;;;;;9.40;99.90;;;;;;4991700;28;19933;-65
2022/04/23 06:17:54;;;;;;;;;;;9.50;99.90;;;;;;4971556;28;20069;-66
2022/04/23 06:20:21;;;;;;;;;;;9.50;99.90;;;;;;4973035;28;20028;-65
2022/04/23 06:22:48;;;;;;;;;;;9.50;99.90;;;;;;4991015;28;20416;-65
2022/04/23 06:25:15;;;;;;;;;;;9.50;99.90;;;;;;4990050;28;20707;-66
2022/04/23 06:27:42;;;;;;;;;;;9.60;99.90;;;;;;4989386;28;20539;-66
2022/04/23 06:30:09;;;;;;;;;;;9.60;99.90;;;;;;4987198;28;19933;-65
2022/04/23 06:32:39;;;;;;;;;;;9.60;99.90;;;;;;4990334;28;21170;-66
2022/04/23 06:35:07;;;;;;;;;;;9.60;99.90;;;;;;4985044;28;21923;-66
2022/04/23 06:37:37;;;;;;;;;;;9.70;99.90;;;;;;4990296;28;19932;-66
2022/04/23 06:40:05;;;;;;;;;;;9.80;99.90;;;;;;5001615;28;24088;-66
2022/04/23 06:42:32;;;;;;;;;;;9.80;99.90;;;;;;4987442;28;19932;-65
2022/04/23 06:45:02;;;;;;;;;;;9.90;99.90;;;;;;4992047;28;19980;-66
2022/04/23 06:47:29;;;;;;;;;;;9.80;99.90;;;;;;4991627;28;20573;-65
2022/04/23 06:49:57;;;;;;;;;;;9.80;99.90;;;;;;4988910;28;19933;-66
2022/04/23 06:52:25;;;;;;;;;;;9.70;99.90;;;;;;4989524;28;19940;-66
2022/04/23 06:54:54;;;;;;;;;;;9.70;99.90;;;;;;4985172;28;20420;-66
2022/04/23 06:57:25;;;;;;;;;;;9.80;99.90;;;;;;5000383;28;19937;-66
2022/04/23 06:59:52;;;;;;;;;;;9.80;99.90;;;;;;5001464;28;20684;-65
2022/04/23 07:02:19;;;;;;;;;;;9.90;99.90;;;;;;4983016;28;19995;-65
2022/04/23 07:04:47;;;;;;;;;;;10.00;99.90;;;;;;4986514;28;19933;-65
2022/04/23 07:07:14;;;;;;;;;;;10.10;99.90;;;;;;4986776;28;20943;-65
2022/04/23 07:09:40;;;;;;;;;;;10.10;99.90;;;;;;4988227;28;19939;-66
2022/04/23 07:12:08;;;;;;;;;;;10.10;99.90;;;;;;4991011;28;19940;-66
2022/04/23 07:14:35;;;;;;;;;;;10.10;99.90;;;;;;4988235;28;19933;-65
2022/04/23 07:17:06;;;;;;;;;;;10.20;99.90;;;;;;4986767;28;19940;-66
2022/04/23 07:19:37;;;;;;;;;;;10.30;99.90;;;;;;4990470;28;20028;-66
2022/04/23 07:22:06;;;;;;;;;;;10.20;99.90;;;;;;4983972;28;19932;-66
2022/04/23 07:24:33;;;;;;;;;;;10.30;99.90;;;;;;4990798;28;19986;-66
2022/04/23 07:27:01;;;;;;;;;;;10.30;99.90;;;;;;5002638;28;20027;-65
2022/04/23 07:29:28;;;;;;;;;;;10.30;99.90;;;;;;4988777;28;19933;-65
2022/04/23 07:31:56;;;;;;;;;;;10.30;99.90;;;;;;4988384;28;19933;-65
2022/04/23 07:39:58;;;;;;;;;;;10.50;99.90;;;;;;4990147;28;19939;-67
2022/04/23 07:42:28;;;;;;;;;;;10.50;99.90;;;;;;4987131;28;19940;-66
2022/04/23 07:44:55;;;;;;;;;;;10.50;99.90;;;;;;4988142;28;19933;-67
2022/04/23 07:47:22;;;;;;;;;;;10.50;99.90;;;;;;4986739;28;20817;-66
2022/04/23 07:49:50;;;;;;;;;;;10.50;99.90;;;;;;4984968;28;19940;-66
2022/04/23 07:52:17;;;;;;;;;;;10.50;99.90;;;;;;5002354;28;22256;-66
2022/04/23 07:54:44;;;;;;;;;;;10.60;99.90;;;;;;4984355;28;19937;-67
2022/04/23 07:57:12;;;;;;;;;;;10.70;99.90;;;;;;4990565;28;22252;-67
2022/04/23 07:59:42;;;;;;;;;;;10.70;99.90;;;;;;4990420;28;19932;-67
2022/04/23 08:02:10;;;;;;;;;;;10.80;99.90;;;;;;4984375;28;20513;-66
2022/04/23 08:04:37;;;;;;;;;;;10.90;99.90;;;;;;4996932;28;19983;-66
2022/04/23 08:07:04;;;;;;;;;;;11.00;99.90;;;;;;4992786;28;19932;-67
2022/04/23 08:09:37;;;;;;;;;;;11.10;99.90;;;;;;4993355;28;22305;-67
2022/04/23 08:12:06;;;;;;;;;;;11.10;99.90;;;;;;4988097;28;20019;-66
2022/04/23 08:14:33;;;;;;;;;;;11.10;99.90;;;;;;4979813;28;19932;-67
2022/04/23 08:17:00;;;;;;;;;;;11.10;99.90;;;;;;4984054;28;19944;-66
2022/04/23 08:19:28;;;;;;;;;;;11.20;99.90;;;;;;4989054;28;19975;-67
2022/04/23 08:21:54;;;;;;;;;;;11.30;99.90;;;;;;4983984;28;19932;-66
2022/04/23 08:24:21;;;;;;;;;;;11.40;99.90;;;;;;4969685;28;19933;-66
2022/04/23 08:26:48;;;;;;;;;;;11.40;99.90;;;;;;4986760;28;20006;-67
2022/04/23 08:32:01;;;;;;;;;;;11.40;99.90;;;;;;4983117;28;19933;-67
2022/04/23 08:34:28;;;;;;;;;;;11.40;99.90;;;;;;4989960;28;19944;-66
2022/04/23 08:36:59;;;;;;;;;;;11.30;99.90;;;;;;4990101;28;22219;-67
2022/04/23 08:39:27;;;;;;;;;;;11.40;99.90;;;;;;4988706;28;20068;-66
2022/04/23 08:41:54;;;;;;;;;;;11.40;99.90;;;;;;4985497;28;19933;-67
2022/04/23 08:44:21;;;;;;;;;;;11.60;99.90;;;;;;4987514;28;19933;-67
2022/04/23 08:46:50;;;;;;;;;;;11.90;99.90;;;;;;4993900;28;19941;-67
2022/04/23 08:49:17;;;;;;;;;;;12.00;99.90;;;;;;4992656;28;19940;-68
2022/04/23 08:51:51;;;;;;;;;;;12.00;99.90;;;;;;4987593;28;22270;-66
2022/04/23 08:54:19;;;;;;;;;;;12.00;99.90;;;;;;4984681;28;19955;-66
2022/04/23 08:56:46;;;;;;;;;;;12.20;99.90;;;;;;4967716;28;19933;-67
2022/04/23 08:59:17;;;;;;;;;;;12.20;99.90;;;;;;4985792;28;19933;-68
2022/04/23 09:01:49;;;;;;;;;;;12.20;99.90;;;;;;4982297;28;19937;-67
2022/04/23 09:04:16;;;;;;;;;;;12.20;99.90;;;;;;4995018;28;22276;-67
2022/04/23 09:06:44;;;;;;;;;;;12.20;99.90;;;;;;4985123;28;20935;-67
2022/04/23 09:09:14;;;;;;;;;;;12.30;99.90;;;;;;4986024;28;19933;-67
2022/04/23 09:11:46;;;;;;;;;;;12.40;99.90;;;;;;4987382;28;19933;-67
2022/04/23 09:14:32;;;;;;;;;;;12.50;99.90;;;;;;4990291;28;19936;-67
2022/04/23 09:25:18;;;;;;;;;;;12.30;99.90;;;;;;4983745;28;19933;-67
2022/04/23 09:27:45;;;;;;;;;;;12.40;99.90;;;;;;4983271;28;19972;-67
2022/04/23 09:30:12;;;;;;;;;;;12.40;99.90;;;;;;4994829;28;20346;-66
2022/04/23 09:32:56;;;;;;;;;;;12.40;99.90;;;;;;4983103;28;19974;-67
2022/04/23 09:35:25;;;;;;;;;;;12.40;99.90;;;;;;4985836;28;22508;-66
2022/04/23 09:40:37;;;;;;;;;;;12.40;99.90;;;;;;4984205;28;19948;-66
2022/04/23 09:43:05;;;;;;;;;;;12.40;99.90;;;;;;4987647;28;20101;-67
2022/04/23 09:45:34;;;;;;;;;;;12.50;99.90;;;;;;5001003;28;19933;-66
2022/04/23 09:48:01;;;;;;;;;;;12.50;99.90;;;;;;4987739;28;20019;-67
2022/04/23 09:50:35;;;;;;;;;;;12.60;99.90;;;;;;4982508;28;20747;-67
2022/04/23 09:53:09;;;;;;;;;;;12.60;99.90;;;;;;5006574;28;22674;-67
2022/04/23 09:55:36;;;;;;;;;;;12.70;99.90;;;;;;5007298;28;19933;-68
2022/04/23 09:58:04;;;;;;;;;;;12.70;99.90;;;;;;4986691;28;20850;-67
2022/04/23 10:00:35;;;;;;;;;;;12.60;99.90;;;;;;4982892;28;19936;-68
2022/04/23 10:03:06;;;;;;;;;;;12.50;99.90;;;;;;4990146;28;19932;-68
2022/04/23 10:05:40;;;;;;;;;;;12.50;99.90;;;;;;4993678;28;20010;-67
2022/04/23 10:08:11;;;;;;;;;;;12.50;99.90;;;;;;4984563;28;19933;-68
2022/04/23 10:10:41;;;;;;;;;;;12.50;99.90;;;;;;4982592;28;20030;-67
2022/04/23 10:13:09;;;;;;;;;;;12.50;99.90;;;;;;4981997;28;19940;-67
2022/04/23 10:15:37;;;;;;;;;;;12.50;99.90;;;;;;4986160;28;19933;-67
2022/04/23 10:18:08;;;;;;;;;;;12.50;99.90;;;;;;4982839;28;21407;-67
2022/04/23 10:20:37;;;;;;;;;;;12.60;99.90;;;;;;4990371;28;19939;-67
2022/04/23 10:23:26;;;;;;;;;;;12.70;99.90;;;;;;4985310;28;19939;-68
2022/04/23 10:25:59;;;;;;;;;;;12.60;99.90;;;;;;4982962;28;19993;-68
2022/04/23 10:28:25;;;;;;;;;;;12.60;99.90;;;;;;4973635;28;19933;-67
2022/04/23 10:31:12;;;;;;;;;;;12.70;99.90;;;;;;4989529;28;20908;-68
2022/04/23 10:33:42;;;;;;;;;;;12.80;99.90;;;;;;4990344;28;20066;-67
2022/04/23 10:36:10;;;;;;;;;;;12.80;99.90;;;;;;4987718;28;22368;-67
2022/04/23 10:38:38;;;;;;;;;;;12.90;99.90;;;;;;4990011;28;19977;-68
2022/04/23 10:41:07;;;;;;;;;;;12.90;99.90;;;;;;4988060;28;19932;-66
2022/04/23 10:43:34;;;;;;;;;;;13.00;99.90;;;;;;4988129;28;20822;-67
2022/04/23 10:46:03;;;;;;;;;;;13.00;99.90;;;;;;4985056;28;19936;-66
2022/04/23 10:48:32;;;;;;;;;;;13.10;99.90;;;;;;4985783;28;20087;-67
2022/04/23 10:51:19;;;;;;;;;;;13.00;99.90;;;;;;4983936;28;20324;-67
2022/04/23 10:53:48;;;;;;;;;;;13.10;99.90;;;;;;4986735;28;19941;-67
2022/04/23 10:56:17;;;;;;;;;;;13.10;99.90;;;;;;4983815;28;20008;-67
2022/04/23 10:58:44;;;;;;;;;;;13.10;99.90;;;;;;4985370;28;19939;-66
2022/04/23 11:01:20;;;;;;;;;;;13.20;99.90;;;;;;4991141;28;19932;-67
2022/04/23 11:04:07;;;;;;;;;;;13.20;99.90;;;;;;4985997;28;20509;-67
2022/04/23 11:12:30;;;;;;;;;;;13.20;99.90;;;;;;4987928;28;20064;-67
2022/04/23 11:14:57;;;;;;;;;;;13.20;99.90;;;;;;4993083;28;21191;-67
2022/04/23 11:17:44;;;;;;;;;;;13.20;99.90;;;;;;4985459;28;19933;-67
2022/04/23 11:20:11;;;;;;;;;;;13.20;99.90;;;;;;4984197;28;19933;-66
2022/04/23 11:22:39;;;;;;;;;;;13.30;99.90;;;;;;4989676;28;22273;-66
2022/04/23 11:25:06;;;;;;;;;;;13.30;99.90;;;;;;4990341;28;19933;-67
2022/04/23 11:27:36;;;;;;;;;;;13.40;99.90;;;;;;4989156;28;19940;-67
2022/04/23 11:30:06;;;;;;;;;;;13.40;99.90;;;;;;4973919;28;19933;-67
2022/04/23 11:32:34;;;;;;;;;;;13.50;99.90;;;;;;4984985;28;19941;-67
2022/04/23 11:35:03;;;;;;;;;;;13.60;99.90;;;;;;4984645;28;19932;-66
2022/04/23 11:37:30;;;;;;;;;;;13.80;99.90;;;;;;4988092;28;19932;-67
2022/04/23 11:40:11;;;;;;;;;;;14.40;99.90;;;;;;4988059;28;19933;-67
2022/04/23 11:42:42;;;;;;;;;;;14.80;99.90;;;;;;4984707;28;19944;-66
2022/04/23 11:45:10;;;;;;;;;;;15.00;99.80;;;;;;4986660;28;19933;-67
2022/04/23 11:47:37;;;;;;;;;;;14.90;99.20;;;;;;4989270;28;20414;-67
2022/04/23 11:50:15;;;;;;;;;;;14.90;99.90;;;;;;5002721;28;19939;-66
2022/04/23 11:52:43;;;;;;;;;;;15.00;99.70;;;;;;4992410;28;22589;-66
2022/04/23 11:55:23;;;;;;;;;;;14.90;99.90;;;;;;4985236;28;22362;-65
2022/04/23 11:57:54;;;;;;;;;;;14.80;99.90;;;;;;4989879;28;19940;-67
2022/04/23 12:00:22;;;;;;;;;;;14.70;98.90;;;;;;4988020;28;19933;-67
2022/04/23 12:02:49;;;;;;;;;;;14.70;98.20;;;;;;4986744;28;19933;-67
2022/04/23 12:05:23;;;;;;;;;;;14.80;98.90;;;;;;4986043;28;19933;-67
2022/04/23 12:07:50;;;;;;;;;;;15.10;99.30;;;;;;4980302;28;19940;-66
2022/04/23 12:10:24;;;;;;;;;;;15.20;95.10;;;;;;4987634;28;19937;-67
2022/04/23 12:12:52;;;;;;;;;;;15.50;95.30;;;;;;4985054;28;19933;-67
2022/04/23 12:15:21;;;;;;;;;;;15.70;95.80;;;;;;4988961;28;19964;-67
2022/04/23 12:17:50;;;;;;;;;;;15.50;90.90;;;;;;4987350;28;19941;-66
2022/04/23 12:20:18;;;;;;;;;;;15.90;95.50;;;;;;4990552;28;19933;-66
2022/04/23 12:23:01;;;;;;;;;;;16.20;92.70;;;;;;4986090;28;19959;-67
2022/04/23 12:25:31;;;;;;;;;;;16.00;94.80;;;;;;4986070;28;20304;-66
2022/04/23 12:27:58;;;;;;;;;;;15.70;94.50;;;;;;4977401;28;20348;-67
2022/04/23 12:41:52;;;;;;;;;;;14.90;92.50;;;;;;4987762;28;19937;-67
2022/04/23 12:44:20;;;;;;;;;;;14.80;92.80;;;;;;4987829;28;20751;-67
2022/04/23 12:46:53;;;;;;;;;;;14.60;92.40;;;;;;4987088;28;20412;-68
2022/04/23 12:49:23;;;;;;;;;;;14.50;93.30;;;;;;4985644;28;20055;-67
2022/04/23 12:51:54;;;;;;;;;;;14.50;93.50;;;;;;4985139;28;20051;-67
2022/04/23 12:54:21;;;;;;;;;;;14.60;93.80;;;;;;4984473;28;20119;-67
2022/04/23 12:56:48;;;;;;;;;;;14.50;93.70;;;;;;4985911;28;23945;-68
2022/04/23 12:59:15;;;;;;;;;;;14.60;94.80;;;;;;4990478;28;20745;-67
2022/04/23 13:01:42;;;;;;;;;;;14.60;95.60;;;;;;4992466;28;19932;-68
2022/04/23 13:04:10;;;;;;;;;;;14.70;96.90;;;;;;4988014;28;19940;-67
2022/04/23 13:09:23;;;;;;;;;;;14.90;94.70;;;;;;4999968;28;20378;-67
2022/04/23 13:11:56;;;;;;;;;;;15.20;94.40;;;;;;4986484;28;19933;-68
2022/04/23 13:14:23;;;;;;;;;;;15.20;94.10;;;;;;4986006;28;19933;-68
2022/04/23 13:16:50;;;;;;;;;;;15.20;92.40;;;;;;4986129;28;19934;-67
2022/04/23 13:19:22;;;;;;;;;;;15.50;92.30;;;;;;4984702;28;19941;-68
2022/04/23 13:21:49;;;;;;;;;;;15.30;92.20;;;;;;4984814;28;19933;-68
2022/04/23 13:24:16;;;;;;;;;;;15.30;91.80;;;;;;4986880;28;19940;-66
2022/04/23 13:26:43;;;;;;;;;;;15.30;94.00;;;;;;4992847;28;20074;-67
2022/04/23 13:29:10;;;;;;;;;;;15.50;94.20;;;;;;4985916;28;19940;-67
2022/04/23 13:31:39;;;;;;;;;;;15.60;92.00;;;;;;4987182;28;19939;-66
2022/04/23 13:34:06;;;;;;;;;;;15.80;92.10;;;;;;4981375;28;19940;-67
2022/04/23 13:36:34;;;;;;;;;;;16.30;91.90;;;;;;4985460;28;20064;-67
2022/04/23 13:39:01;;;;;;;;;;;16.40;92.20;;;;;;4992565;28;19940;-67
2022/04/23 13:41:28;;;;;;;;;;;16.80;90.70;;;;;;4985735;28;20663;-66
2022/04/23 13:43:55;;;;;;;;;;;16.80;89.80;;;;;;4986725;28;19940;-68
2022/04/23 13:46:22;;;;;;;;;;;17.00;90.60;;;;;;4984497;28;19999;-67
2022/04/23 13:48:49;;;;;;;;;;;16.70;90.40;;;;;;4987964;28;20661;-68
2022/04/23 13:51:16;;;;;;;;;;;16.30;90.80;;;;;;4981769;28;19933;-68
2022/04/23 13:53:43;;;;;;;;;;;16.10;90.70;;;;;;4985796;28;21258;-67
2022/04/23 13:56:10;;;;;;;;;;;16.10;92.10;;;;;;4985559;28;19936;-68
2022/04/23 13:58:38;;;;;;;;;;;16.40;91.60;;;;;;4985687;28;22329;-67
2022/04/23 14:01:05;;;;;;;;;;;16.50;92.00;;;;;;4985672;28;20412;-67
2022/04/23 14:11:49;;;;;;;;;;;15.80;91.40;;;;;;4991257;28;19940;-67
2022/04/23 14:14:16;;;;;;;;;;;15.80;92.40;;;;;;5001255;28;20742;-67
2022/04/23 14:16:43;;;;;;;;;;;15.70;92.90;;;;;;4984746;28;20003;-68
2022/04/23 14:19:11;;;;;;;;;;;15.70;92.20;;;;;;4987426;28;19999;-67
2022/04/23 14:21:38;;;;;;;;;;;15.60;92.50;;;;;;4990708;28;20600;-68
2022/04/23 14:24:05;;;;;;;;;;;15.60;92.60;;;;;;4991493;28;19979;-67
2022/04/23 14:26:32;;;;;;;;;;;15.70;92.30;;;;;;4976074;28;22265;-67
2022/04/23 14:28:59;;;;;;;;;;;15.60;92.10;;;;;;4989714;28;19932;-67
2022/04/23 14:31:28;;;;;;;;;;;15.60;92.00;;;;;;4990374;28;22436;-67
2022/04/23 14:33:56;;;;;;;;;;;15.50;91.60;;;;;;4990041;28;19976;-68
2022/04/23 14:36:23;;;;;;;;;;;15.50;92.20;;;;;;4989069;28;19933;-68
2022/04/23 14:38:51;;;;;;;;;;;15.40;92.20;;;;;;4987121;28;20002;-68
2022/04/23 14:41:18;;;;;;;;;;;15.30;93.40;;;;;;4986702;28;19933;-68
2022/04/23 14:43:45;;;;;;;;;;;15.20;92.90;;;;;;5005609;28;19955;-68
2022/04/23 14:46:12;;;;;;;;;;;15.10;93.80;;;;;;4989234;28;19933;-68
2022/04/23 14:48:39;;;;;;;;;;;14.90;93.70;;;;;;4991011;28;20877;-67
2022/04/23 14:53:52;;;;;;;;;;;14.80;94.50;;;;;;4987282;28;20006;-67
2022/04/23 14:56:19;;;;;;;;;;;14.70;95.00;;;;;;4988620;28;19956;-68
2022/04/23 14:58:46;;;;;;;;;;;14.60;95.80;;;;;;5003263;28;19933;-67
2022/04/23 15:01:13;;;;;;;;;;;14.50;96.30;;;;;;4984340;28;19937;-67
2022/04/23 15:03:43;;;;;;;;;;;14.50;95.80;;;;;;4998031;28;20061;-67
2022/04/23 15:06:11;;;;;;;;;;;14.50;96.20;;;;;;4971589;28;19940;-67
2022/04/23 15:08:38;;;;;;;;;;;14.40;96.20;;;;;;4988306;28;19933;-67
2022/04/23 15:11:07;;;;;;;;;;;14.40;96.00;;;;;;4987178;28;19940;-67
2022/04/23 15:13:37;;;;;;;;;;;14.30;96.20;;;;;;4987591;28;19956;-67
2022/04/23 15:16:04;;;;;;;;;;;14.30;96.60;;;;;;4987818;28;19932;-67
2022/04/23 15:18:32;;;;;;;;;;;14.20;97.10;;;;;;4986413;28;20040;-68
2022/04/23 15:20:59;;;;;;;;;;;14.20;96.40;;;;;;4985345;28;19933;-67
2022/04/23 15:23:26;;;;;;;;;;;14.20;97.00;;;;;;4994972;28;19975;-66